createdAt,value
2022-08-10T00:00:52.012Z,16.02
2022-08-10T00:03:19.288Z,15.98
2022-08-10T00:05:52.378Z,15.97
2022-08-10T00:08:23.835Z,15.93
2022-08-10T00:10:56.849Z,15.90
2022-08-10T00:13:25.808Z,15.86
2022-08-10T00:15:55.161Z,15.84
2022-08-10T00:18:31.604Z,15.82
2022-08-10T00:21:06.509Z,15.81
2022-08-10T00:23:34.888Z,15.79
2022-08-10T00:26:03.147Z,15.77
2022-08-10T00:28:30.611Z,15.75
2022-08-10T00:30:58.398Z,15.75
2022-08-10T00:33:25.742Z,15.72
2022-08-10T00:35:53.287Z,15.68
2022-08-10T00:38:20.753Z,15.66
2022-08-10T00:40:48.210Z,15.62
2022-08-10T00:43:15.668Z,15.59
2022-08-10T00:45:59.465Z,15.55
2022-08-10T00:48:31.467Z,15.51
2022-08-10T00:51:00.155Z,15.48
2022-08-10T00:53:28.732Z,15.44
2022-08-10T00:57:12.568Z,15.41
2022-08-10T00:58:45.862Z,15.37
2022-08-10T01:01:30.646Z,15.34
2022-08-10T01:04:36.637Z,15.33
2022-08-10T01:07:04.553Z,15.30
2022-08-10T01:09:39.515Z,15.27
2022-08-10T01:12:37.550Z,15.26
2022-08-10T01:15:08.996Z,15.25
2022-08-10T01:17:50.534Z,15.24
2022-08-10T01:20:45.469Z,15.24
2022-08-10T01:23:30.964Z,15.24
2022-08-10T01:26:43.087Z,15.23
2022-08-10T01:29:28.269Z,15.22
2022-08-10T01:32:00.492Z,15.20
2022-08-10T01:34:50.398Z,15.18
2022-08-10T01:37:20.516Z,15.16
2022-08-10T01:39:51.141Z,15.14
2022-08-10T01:42:20.988Z,15.12
2022-08-10T01:44:57.017Z,15.12
2022-08-10T01:48:03.107Z,15.10
2022-08-10T01:50:59.846Z,15.08
2022-08-10T01:53:52.590Z,15.03
2022-08-10T01:56:23.437Z,14.94
2022-08-10T01:58:54.519Z,14.88
2022-08-10T02:01:25.047Z,14.83
2022-08-10T02:04:05.368Z,14.81
2022-08-10T02:06:37.183Z,14.80
2022-08-10T02:09:06.055Z,14.78
2022-08-10T02:11:55.985Z,14.74
2022-08-10T02:14:26.311Z,14.72
2022-08-10T02:17:57.874Z,14.70
2022-08-10T02:20:03.415Z,14.67
2022-08-10T02:22:37.417Z,14.64
2022-08-10T02:25:10.061Z,14.60
2022-08-10T02:27:57.824Z,14.55
2022-08-10T02:30:26.107Z,14.51
2022-08-10T02:32:54.090Z,14.46
2022-08-10T02:35:22.925Z,14.41
2022-08-10T02:37:57.485Z,14.36
2022-08-10T02:42:18.259Z,14.32
2022-08-10T02:45:23.751Z,14.30
2022-08-10T02:46:20.746Z,14.28
2022-08-10T02:48:55.162Z,14.26
2022-08-10T02:52:07.781Z,14.23
2022-08-10T02:54:22.598Z,14.20
2022-08-10T02:57:05.656Z,14.16
2022-08-10T02:59:39.768Z,14.10
2022-08-10T03:02:09.542Z,14.07
2022-08-10T03:04:54.649Z,14.09
2022-08-10T03:07:42.839Z,14.09
2022-08-10T03:10:14.966Z,14.07
2022-08-10T03:12:43.652Z,14.05
2022-08-10T03:15:15.892Z,14.02
2022-08-10T03:17:57.438Z,13.97
2022-08-10T03:20:38.143Z,13.92
2022-08-10T03:23:12.385Z,13.88
2022-08-10T03:25:40.095Z,13.84
2022-08-10T03:28:08.175Z,13.82
2022-08-10T03:30:35.741Z,13.81
2022-08-10T03:33:07.908Z,13.80
2022-08-10T03:35:35.569Z,13.77
2022-08-10T03:38:03.206Z,13.73
2022-08-10T03:40:46.032Z,13.66
2022-08-10T03:43:19.526Z,13.63
2022-08-10T03:45:54.695Z,13.62
2022-08-10T03:48:47.004Z,13.64
2022-08-10T03:51:13.868Z,13.66
2022-08-10T03:54:05.426Z,13.67
2022-08-10T03:56:32.440Z,13.68
2022-08-10T03:59:01.653Z,13.72
2022-08-10T04:02:41.519Z,13.76
2022-08-10T04:04:22.941Z,13.82
2022-08-10T04:06:57.517Z,13.88
2022-08-10T04:09:53.987Z,13.91
2022-08-10T04:12:19.427Z,13.95
2022-08-10T04:14:51.023Z,14.01
2022-08-10T04:18:04.298Z,14.08
2022-08-10T04:20:14.567Z,14.13
2022-08-10T04:22:43.149Z,14.20
2022-08-10T04:25:11.520Z,14.25
2022-08-10T04:27:38.891Z,14.32
2022-08-10T04:30:07.156Z,14.39
2022-08-10T04:32:34.909Z,14.47
2022-08-10T04:35:04.939Z,14.58
2022-08-10T04:37:35.568Z,14.69
2022-08-10T04:40:03.130Z,14.80
2022-08-10T04:42:31.424Z,14.92
2022-08-10T04:44:58.745Z,15.04
2022-08-10T04:48:00.555Z,15.17
2022-08-10T04:50:13.447Z,15.34
2022-08-10T04:52:44.162Z,15.52
2022-08-10T04:55:11.528Z,15.67
2022-08-10T04:57:39.087Z,15.83
2022-08-10T05:00:08.733Z,15.98
2022-08-10T05:02:47.208Z,16.16
2022-08-10T05:05:14.570Z,16.33
2022-08-10T05:07:54.146Z,16.50
2022-08-10T05:10:24.837Z,16.68
2022-08-10T05:12:52.308Z,16.85
2022-08-10T05:15:19.751Z,17.03
2022-08-10T05:18:08.241Z,17.20
2022-08-10T05:20:34.421Z,17.40
2022-08-10T05:23:01.769Z,17.60
2022-08-10T05:25:29.428Z,17.81
2022-08-10T05:28:04.435Z,18.05
2022-08-10T05:30:35.018Z,18.26
2022-08-10T05:33:06.591Z,18.43
2022-08-10T05:35:55.554Z,18.59
2022-08-10T05:38:26.868Z,18.75
2022-08-10T05:40:54.747Z,18.86
2022-08-10T05:43:22.809Z,18.98
2022-08-10T05:46:18.593Z,19.14
2022-08-10T05:48:54.562Z,19.32
2022-08-10T05:51:26.650Z,19.53
2022-08-10T05:54:00.824Z,19.69
2022-08-10T05:56:57.072Z,19.85
2022-08-10T06:00:29.305Z,20.00
2022-08-10T06:02:33.508Z,20.14
2022-08-10T06:04:57.977Z,20.31
2022-08-10T06:07:27.573Z,20.45
2022-08-10T06:09:59.165Z,20.59
2022-08-10T06:12:37.556Z,20.73
2022-08-10T06:15:21.636Z,20.88
2022-08-10T06:17:59.131Z,21.01
2022-08-10T06:20:35.939Z,21.15
2022-08-10T06:23:04.842Z,21.26
2022-08-10T06:26:09.554Z,21.35
2022-08-10T06:28:20.844Z,21.46
2022-08-10T06:30:50.088Z,21.57
2022-08-10T06:33:19.646Z,21.69
2022-08-10T06:35:49.487Z,21.83
2022-08-10T06:38:17.539Z,21.95
2022-08-10T06:40:47.043Z,22.06
2022-08-10T06:43:17.623Z,22.17
2022-08-10T06:46:07.435Z,22.27
2022-08-10T06:48:47.817Z,22.37
2022-08-10T06:51:18.812Z,22.49
2022-08-10T06:53:55.150Z,22.60
2022-08-10T06:56:35.801Z,22.67
2022-08-10T06:59:21.899Z,22.75
2022-08-10T07:02:01.259Z,22.85
2022-08-10T07:04:41.480Z,22.96
2022-08-10T07:07:09.449Z,23.11
2022-08-10T07:09:40.587Z,23.19
2022-08-10T07:12:09.717Z,23.25
2022-08-10T07:14:45.443Z,23.28
2022-08-10T07:17:19.758Z,23.31
2022-08-10T07:19:52.441Z,23.38
2022-08-10T07:23:56.164Z,23.45
2022-08-10T07:25:21.460Z,23.53
2022-08-10T07:28:00.606Z,23.62
2022-08-10T07:30:33.840Z,23.68
2022-08-10T07:33:02.377Z,23.76
2022-08-10T07:35:36.489Z,23.82
2022-08-10T07:38:18.978Z,23.86
2022-08-10T07:40:47.461Z,23.91
2022-08-10T07:43:17.781Z,23.89
2022-08-10T07:45:45.733Z,23.88
2022-08-10T07:48:19.382Z,23.89
2022-08-10T07:50:47.937Z,23.85
2022-08-10T07:53:22.430Z,23.87
2022-08-10T07:56:05.689Z,23.95
2022-08-10T07:58:51.797Z,23.99
2022-08-10T08:01:23.762Z,24.00
2022-08-10T08:04:11.022Z,23.96
2022-08-10T08:06:41.081Z,23.97
2022-08-10T08:09:09.359Z,24.01
2022-08-10T08:11:37.710Z,24.07
2022-08-10T08:14:06.773Z,24.14
2022-08-10T08:16:36.017Z,24.21
2022-08-10T08:24:08.091Z,24.31
2022-08-10T08:24:40.786Z,24.35
2022-08-10T08:27:08.556Z,24.40
2022-08-10T08:29:37.648Z,24.45
2022-08-10T08:32:06.228Z,24.52
2022-08-10T08:34:35.630Z,24.60
2022-08-10T08:37:05.038Z,24.64
2022-08-10T08:39:33.741Z,24.68
2022-08-10T08:42:19.400Z,24.71
2022-08-10T08:45:34.881Z,24.71
2022-08-10T08:48:07.371Z,24.71
2022-08-10T08:50:34.610Z,24.71
2022-08-10T08:53:22.205Z,24.72
2022-08-10T08:56:05.370Z,24.71
2022-08-10T08:58:45.227Z,24.66
2022-08-10T09:01:24.667Z,24.66
2022-08-10T09:04:19.884Z,24.67
2022-08-10T09:08:00.592Z,24.67
2022-08-10T09:10:29.766Z,24.68
2022-08-10T09:13:14.906Z,24.70
2022-08-10T09:15:45.260Z,24.78
2022-08-10T09:18:20.287Z,24.82
2022-08-10T09:20:47.622Z,24.85
2022-08-10T09:23:15.069Z,24.90
2022-08-10T09:25:45.952Z,24.94
2022-08-10T09:28:20.802Z,24.96
2022-08-10T09:31:23.174Z,25.03
2022-08-10T09:36:26.171Z,25.11
2022-08-10T09:36:55.628Z,25.13
2022-08-10T09:40:06.937Z,25.13
2022-08-10T09:43:07.840Z,25.18
2022-08-10T09:45:46.248Z,25.21
2022-08-10T09:48:21.690Z,25.21
2022-08-10T09:54:05.799Z,25.22
2022-08-10T09:56:42.011Z,25.30
2022-08-10T09:59:29.334Z,25.42
2022-08-10T10:02:52.846Z,25.53
2022-08-10T10:05:38.950Z,25.61
2022-08-10T10:08:32.989Z,25.66
2022-08-10T10:11:25.638Z,25.72
2022-08-10T10:14:03.972Z,25.79
2022-08-10T10:16:46.456Z,25.88
2022-08-10T10:19:41.783Z,25.99
2022-08-10T10:22:43.839Z,26.02
2022-08-10T10:25:49.785Z,26.01
2022-08-10T10:28:57.469Z,26.03
2022-08-10T10:31:54.349Z,26.02
2022-08-10T10:34:41.944Z,26.11
2022-08-10T10:37:10.768Z,26.22
2022-08-10T10:39:41.548Z,26.32
2022-08-10T10:42:18.598Z,26.40
2022-08-10T10:45:42.014Z,26.40
2022-08-10T10:48:24.315Z,26.41
2022-08-10T10:51:11.470Z,26.48
2022-08-10T10:54:07.043Z,26.61
2022-08-10T10:56:37.383Z,26.78
2022-08-10T10:59:55.789Z,26.95
2022-08-10T11:02:44.928Z,27.21
2022-08-10T11:05:34.086Z,27.32
2022-08-10T11:08:06.357Z,27.30
2022-08-10T11:10:55.242Z,27.19
2022-08-10T11:14:23.274Z,27.07
2022-08-10T11:16:39.229Z,26.99
2022-08-10T11:20:00.323Z,26.88
2022-08-10T11:22:23.658Z,26.74
2022-08-10T11:25:07.512Z,26.75
2022-08-10T11:27:53.193Z,26.76
2022-08-10T11:30:27.749Z,26.78
2022-08-10T11:33:32.443Z,26.88
2022-08-10T11:36:03.795Z,27.00
2022-08-10T11:38:47.249Z,27.09
2022-08-10T11:42:12.234Z,27.21
2022-08-10T11:44:46.052Z,27.26
2022-08-10T11:47:16.051Z,27.32
2022-08-10T11:50:24.989Z,27.30
2022-08-10T11:53:07.271Z,27.15
2022-08-10T11:55:35.453Z,26.96
2022-08-10T11:58:28.403Z,26.84
2022-08-10T12:00:57.610Z,26.79
2022-08-10T12:03:25.508Z,26.80
2022-08-10T12:05:56.525Z,26.85
2022-08-10T12:10:03.078Z,26.88
2022-08-10T12:11:23.843Z,26.89
2022-08-10T12:14:19.805Z,26.94
2022-08-10T12:16:50.873Z,27.00
2022-08-10T12:19:59.533Z,27.08
2022-08-10T12:22:55.901Z,27.19
2022-08-10T12:25:55.566Z,27.31
2022-08-10T12:28:50.750Z,27.42
2022-08-10T12:31:24.405Z,27.59
2022-08-10T12:34:03.166Z,27.70
2022-08-10T12:36:47.926Z,27.72
2022-08-10T12:39:27.737Z,27.60
2022-08-10T12:42:06.198Z,27.41
2022-08-10T12:44:51.037Z,27.20
2022-08-10T12:47:41.759Z,27.03
2022-08-10T12:50:30.832Z,26.85
2022-08-10T12:53:31.550Z,26.72
2022-08-10T12:55:59.104Z,26.64
2022-08-10T12:58:58.333Z,26.67
2022-08-10T13:01:17.221Z,26.74
2022-08-10T13:04:22.637Z,26.80
2022-08-10T13:06:46.505Z,26.87
2022-08-10T13:09:14.852Z,26.97
2022-08-10T13:12:36.105Z,27.05
2022-08-10T13:14:48.470Z,27.16
2022-08-10T13:17:21.801Z,27.18
2022-08-10T13:19:55.023Z,27.14
2022-08-10T13:22:28.585Z,27.12
2022-08-10T13:25:00.846Z,27.05
2022-08-10T13:28:02.672Z,26.93
2022-08-10T13:30:33.854Z,26.78
2022-08-10T13:33:07.037Z,26.67
2022-08-10T13:35:35.815Z,26.60
2022-08-10T13:38:04.388Z,26.64
2022-08-10T13:40:32.727Z,26.71
2022-08-10T13:43:02.199Z,26.80
2022-08-10T13:45:29.976Z,26.90
2022-08-10T13:48:17.781Z,26.99
2022-08-10T13:50:46.827Z,27.00
2022-08-10T13:53:15.926Z,26.96
2022-08-10T13:55:53.988Z,26.88
2022-08-10T13:58:34.470Z,26.81
2022-08-10T14:01:10.682Z,26.71
2022-08-10T14:03:40.457Z,26.60
2022-08-10T14:06:12.695Z,26.55
2022-08-10T14:08:41.685Z,26.53
2022-08-10T14:11:14.157Z,26.52
2022-08-10T14:13:45.112Z,26.52
2022-08-10T14:16:12.650Z,26.53
2022-08-10T14:18:42.467Z,26.50
2022-08-10T14:21:09.822Z,26.43
2022-08-10T14:23:53.248Z,26.35
2022-08-10T14:26:31.090Z,26.31
2022-08-10T14:29:10.180Z,26.33
2022-08-10T14:32:01.832Z,26.38
2022-08-10T14:34:50.589Z,26.45
2022-08-10T14:37:37.835Z,26.52
2022-08-10T14:40:18.146Z,26.57
2022-08-10T14:43:07.304Z,26.57
2022-08-10T14:45:40.306Z,26.58
2022-08-10T14:48:12.380Z,26.60
2022-08-10T14:50:49.452Z,26.60
2022-08-10T14:53:26.672Z,26.55
2022-08-10T14:56:00.597Z,26.51
2022-08-10T14:58:38.708Z,26.50
2022-08-10T15:01:07.998Z,26.47
2022-08-10T15:04:02.364Z,26.43
2022-08-10T15:06:30.730Z,26.37
2022-08-10T15:09:20.148Z,26.34
2022-08-10T15:12:13.045Z,26.36
2022-08-10T15:14:45.766Z,26.47
2022-08-10T15:17:26.618Z,26.59
2022-08-10T15:20:04.269Z,26.65
2022-08-10T15:22:46.195Z,26.62
2022-08-10T15:25:19.436Z,26.60
2022-08-10T15:27:56.315Z,26.53
2022-08-10T15:30:30.991Z,26.41
2022-08-10T15:33:21.710Z,26.27
2022-08-10T15:36:26.512Z,26.12
2022-08-10T15:40:21.170Z,26.02
2022-08-10T15:42:38.323Z,25.90
2022-08-10T15:45:06.803Z,25.88
2022-08-10T15:47:51.261Z,25.93
2022-08-10T15:50:29.311Z,26.00
2022-08-10T15:53:08.000Z,26.09
2022-08-10T15:55:51.672Z,26.18
2022-08-10T15:58:40.122Z,26.24
2022-08-10T16:02:04.743Z,26.30
2022-08-10T16:04:08.455Z,26.30
2022-08-10T16:06:43.481Z,26.29
2022-08-10T16:10:23.749Z,26.24
2022-08-10T16:12:29.344Z,26.17
2022-08-10T16:15:18.569Z,26.10
2022-08-10T16:17:56.075Z,26.02
2022-08-10T16:20:54.856Z,25.96
2022-08-10T16:23:36.460Z,25.88
2022-08-10T16:26:15.282Z,25.79
2022-08-10T16:28:50.939Z,25.73
2022-08-10T16:31:24.232Z,25.68
2022-08-10T16:33:55.134Z,25.64
2022-08-10T16:36:32.929Z,25.61
2022-08-10T16:39:00.821Z,25.59
2022-08-10T16:42:03.940Z,25.58
2022-08-10T16:44:18.806Z,25.57
2022-08-10T16:46:47.155Z,25.57
2022-08-10T16:49:16.349Z,25.59
2022-08-10T16:51:48.037Z,25.58
2022-08-10T16:54:22.397Z,25.54
2022-08-10T16:56:52.946Z,25.50
2022-08-10T16:59:24.331Z,25.49
2022-08-10T17:01:54.258Z,25.47
2022-08-10T17:04:23.120Z,25.47
2022-08-10T17:06:57.684Z,25.44
2022-08-10T17:09:30.312Z,25.43
2022-08-10T17:11:59.097Z,25.41
2022-08-10T17:14:28.637Z,25.38
2022-08-10T17:17:00.780Z,25.35
2022-08-10T17:19:30.666Z,25.31
2022-08-10T17:21:59.771Z,25.28
2022-08-10T17:24:50.407Z,25.24
2022-08-10T17:28:13.967Z,25.18
2022-08-10T17:30:15.917Z,25.13
2022-08-10T17:32:55.759Z,25.06
2022-08-10T17:35:26.494Z,25.00
2022-08-10T17:37:57.240Z,24.94
2022-08-10T17:40:26.016Z,24.87
2022-08-10T17:42:54.800Z,24.82
2022-08-10T17:45:48.001Z,24.76
2022-08-10T17:48:17.772Z,24.70
2022-08-10T17:50:50.158Z,24.66
2022-08-10T17:53:50.799Z,24.62
2022-08-10T17:56:20.507Z,24.59
2022-08-10T17:58:54.501Z,24.66
2022-08-10T18:01:40.393Z,24.85
2022-08-10T18:04:18.920Z,25.04
2022-08-10T18:06:53.005Z,25.15
2022-08-10T18:09:50.701Z,25.21
2022-08-10T18:12:34.531Z,25.18
2022-08-10T18:15:12.094Z,25.07
2022-08-10T18:17:44.230Z,24.88
2022-08-10T18:20:12.679Z,24.69
2022-08-10T18:22:45.111Z,24.50
2022-08-10T18:25:27.848Z,24.31
2022-08-10T18:28:03.765Z,24.13
2022-08-10T18:30:36.618Z,23.96
2022-08-10T18:33:06.504Z,23.79
2022-08-10T18:35:34.877Z,23.63
2022-08-10T18:38:03.850Z,23.47
2022-08-10T18:40:35.390Z,23.32
2022-08-10T18:43:08.753Z,23.16
2022-08-10T18:45:57.384Z,23.01
2022-08-10T18:48:31.206Z,22.88
2022-08-10T18:51:05.088Z,22.77
2022-08-10T18:53:48.664Z,22.64
2022-08-10T18:56:30.339Z,22.51
2022-08-10T18:59:15.820Z,22.39
2022-08-10T19:02:08.845Z,22.27
2022-08-10T19:04:57.919Z,22.14
2022-08-10T19:07:44.833Z,22.03
2022-08-10T19:10:36.978Z,21.92
2022-08-10T19:13:34.322Z,21.82
2022-08-10T19:16:15.918Z,21.72
2022-08-10T19:19:21.952Z,21.63
2022-08-10T19:22:02.459Z,21.53
2022-08-10T19:24:51.819Z,21.44
2022-08-10T19:27:32.600Z,21.36
2022-08-10T19:30:17.034Z,21.28
2022-08-10T19:33:08.346Z,21.18
2022-08-10T19:36:03.957Z,21.06
2022-08-10T19:39:17.997Z,20.93
2022-08-10T19:41:54.424Z,20.79
2022-08-10T19:44:28.283Z,20.72
2022-08-10T19:47:06.907Z,20.65
2022-08-10T19:49:43.799Z,20.57
2022-08-10T19:52:33.693Z,20.48
2022-08-10T19:55:25.519Z,20.39
2022-08-10T19:58:02.588Z,20.29
2022-08-10T20:00:40.017Z,20.21
2022-08-10T20:03:16.666Z,20.15
2022-08-10T20:06:18.148Z,20.09
2022-08-10T20:09:07.881Z,20.01
2022-08-10T20:11:50.152Z,19.95
2022-08-10T20:14:28.919Z,19.88
2022-08-10T20:17:03.639Z,19.83
2022-08-10T20:19:57.306Z,19.77
2022-08-10T20:22:30.619Z,19.70
2022-08-10T20:25:03.655Z,19.64
2022-08-10T20:27:58.785Z,19.58
2022-08-10T20:30:31.270Z,19.53
2022-08-10T20:33:09.180Z,19.48
2022-08-10T20:35:53.835Z,19.43
2022-08-10T20:38:31.742Z,19.36
2022-08-10T20:41:09.250Z,19.31
2022-08-10T20:43:52.450Z,19.25
2022-08-10T20:46:31.701Z,19.18
2022-08-10T20:49:20.861Z,19.11
2022-08-10T20:51:58.115Z,19.04
2022-08-10T20:54:32.261Z,18.97
2022-08-10T20:57:55.889Z,18.93
2022-08-10T21:00:30.464Z,18.86
2022-08-10T21:03:22.051Z,18.81
2022-08-10T21:05:55.281Z,18.75
2022-08-10T21:08:42.681Z,18.70
2022-08-10T21:11:28.051Z,18.64
2022-08-10T21:14:29.115Z,18.57
2022-08-10T21:17:25.340Z,18.50
2022-08-10T21:22:58.764Z,18.36
2022-08-10T21:26:08.120Z,18.30
2022-08-10T21:28:54.601Z,18.23
2022-08-10T21:31:44.281Z,18.16
2022-08-10T21:34:31.809Z,18.11
2022-08-10T21:37:19.148Z,18.05
2022-08-10T21:40:35.486Z,18.00
2022-08-10T21:43:44.537Z,17.93
2022-08-10T21:46:58.828Z,17.87
2022-08-10T21:50:07.596Z,17.81
2022-08-10T21:53:04.059Z,17.74
2022-08-10T21:55:58.154Z,17.69
2022-08-10T21:59:20.905Z,17.64
2022-08-10T22:02:12.163Z,17.57
2022-08-10T22:04:58.924Z,17.51
2022-08-10T22:07:46.662Z,17.44
2022-08-10T22:10:34.615Z,17.37
2022-08-10T22:13:22.132Z,17.32
2022-08-10T22:16:16.312Z,17.28
2022-08-10T22:19:14.532Z,17.23
2022-08-10T22:22:30.685Z,17.19
2022-08-10T22:25:52.124Z,17.15
2022-08-10T22:28:38.827Z,17.13
2022-08-10T22:31:27.381Z,18.43
2022-08-10T22:31:45.896Z,17.11
2022-08-10T22:34:42.341Z,17.11
2022-08-10T22:37:56.209Z,17.09
2022-08-10T22:40:43.051Z,17.08
2022-08-10T22:43:38.609Z,17.07
2022-08-10T22:46:44.365Z,17.05
2022-08-10T22:49:11.941Z,17.03
2022-08-10T22:51:55.780Z,17.00
2022-08-10T22:54:52.307Z,16.96
2022-08-10T22:57:39.227Z,16.92
2022-08-10T23:00:30.665Z,16.89
2022-08-10T23:03:10.822Z,16.84
2022-08-10T23:05:48.503Z,16.81
2022-08-10T23:08:43.392Z,16.72
2022-08-10T23:11:21.181Z,16.59
2022-08-10T23:13:49.125Z,16.50
2022-08-10T23:16:40.982Z,16.42
2022-08-10T23:19:14.193Z,16.33
2022-08-10T23:22:05.278Z,16.24
2022-08-10T23:24:47.790Z,16.20
2022-08-10T23:27:38.457Z,16.18
2022-08-10T23:30:17.191Z,16.15
2022-08-10T23:32:50.961Z,16.14
2022-08-10T23:36:05.557Z,16.13
2022-08-10T23:38:08.767Z,16.13
2022-08-10T23:40:36.649Z,16.09
2022-08-10T23:43:05.435Z,16.07
2022-08-10T23:45:53.934Z,16.05
2022-08-10T23:48:23.533Z,16.02
2022-08-10T23:50:59.534Z,15.96
2022-08-10T23:53:35.932Z,15.91
2022-08-10T23:56:23.225Z,15.85
2022-08-10T23:58:53.655Z,15.82
